sensor_id;sensor_type;location;lat;lon;timestamp;P1;durP1;ratioP1;P2;durP2;ratioP2
18360;SDS011;9308;48.550;9.108;2023-04-25T00:01:21;4.87;;;4.57;;
18360;SDS011;9308;48.550;9.108;2023-04-25T00:03:47;4.93;;;4.57;;
18360;SDS011;9308;48.550;9.108;2023-04-25T00:06:13;5.57;;;5.07;;
18360;SDS011;9308;48.550;9.108;2023-04-25T00:08:39;5.60;;;5.20;;
18360;SDS011;9308;48.550;9.108;2023-04-25T00:11:04;5.77;;;5.23;;
18360;SDS011;9308;48.550;9.108;2023-04-25T00:13:30;5.97;;;5.43;;
18360;SDS011;9308;48.550;9.108;2023-04-25T00:15:56;5.00;;;4.60;;
18360;SDS011;9308;48.550;9.108;2023-04-25T00:18:21;5.13;;;4.73;;
18360;SDS011;9308;48.550;9.108;2023-04-25T00:20:47;5.33;;;4.83;;
18360;SDS011;9308;48.550;9.108;2023-04-25T00:23:13;5.30;;;4.80;;
18360;SDS011;9308;48.550;9.108;2023-04-25T00:25:43;5.57;;;5.17;;
18360;SDS011;9308;48.550;9.108;2023-04-25T00:28:10;5.57;;;5.07;;
18360;SDS011;9308;48.550;9.108;2023-04-25T00:30:36;5.57;;;5.10;;
18360;SDS011;9308;48.550;9.108;2023-04-25T00:33:01;5.40;;;5.00;;
18360;SDS011;9308;48.550;9.108;2023-04-25T00:35:27;6.00;;;5.40;;
18360;SDS011;9308;48.550;9.108;2023-04-25T00:37:52;6.17;;;5.33;;
18360;SDS011;9308;48.550;9.108;2023-04-25T00:40:19;6.30;;;5.60;;
18360;SDS011;9308;48.550;9.108;2023-04-25T00:42:44;5.80;;;5.30;;
18360;SDS011;9308;48.550;9.108;2023-04-25T00:45:12;4.93;;;4.53;;
18360;SDS011;9308;48.550;9.108;2023-04-25T00:47:40;5.60;;;5.10;;
18360;SDS011;9308;48.550;9.108;2023-04-25T00:50:06;6.57;;;5.97;;
18360;SDS011;9308;48.550;9.108;2023-04-25T00:52:32;5.43;;;5.10;;
18360;SDS011;9308;48.550;9.108;2023-04-25T00:54:57;5.17;;;4.87;;
18360;SDS011;9308;48.550;9.108;2023-04-25T00:57:23;5.37;;;4.67;;
18360;SDS011;9308;48.550;9.108;2023-04-25T00:59:49;4.97;;;4.57;;
18360;SDS011;9308;48.550;9.108;2023-04-25T01:02:16;5.27;;;4.77;;
18360;SDS011;9308;48.550;9.108;2023-04-25T01:04:42;5.30;;;4.90;;
18360;SDS011;9308;48.550;9.108;2023-04-25T01:07:07;5.00;;;4.50;;
18360;SDS011;9308;48.550;9.108;2023-04-25T01:09:33;5.80;;;5.40;;
18360;SDS011;9308;48.550;9.108;2023-04-25T01:12:00;5.50;;;4.73;;
18360;SDS011;9308;48.550;9.108;2023-04-25T01:14:26;5.67;;;5.27;;
18360;SDS011;9308;48.550;9.108;2023-04-25T01:16:51;5.50;;;5.00;;
18360;SDS011;9308;48.550;9.108;2023-04-25T01:19:18;4.97;;;4.60;;
18360;SDS011;9308;48.550;9.108;2023-04-25T01:21:44;5.47;;;5.00;;
18360;SDS011;9308;48.550;9.108;2023-04-25T01:24:10;6.97;;;5.40;;
18360;SDS011;9308;48.550;9.108;2023-04-25T01:26:37;5.90;;;5.20;;
18360;SDS011;9308;48.550;9.108;2023-04-25T01:29:06;4.53;;;4.13;;
18360;SDS011;9308;48.550;9.108;2023-04-25T01:31:33;5.07;;;4.57;;
18360;SDS011;9308;48.550;9.108;2023-04-25T01:34:00;4.90;;;4.50;;
18360;SDS011;9308;48.550;9.108;2023-04-25T01:36:26;5.27;;;4.87;;
18360;SDS011;9308;48.550;9.108;2023-04-25T01:38:52;5.23;;;4.73;;
18360;SDS011;9308;48.550;9.108;2023-04-25T01:41:17;8.70;;;5.53;;
18360;SDS011;9308;48.550;9.108;2023-04-25T01:43:43;5.00;;;4.60;;
18360;SDS011;9308;48.550;9.108;2023-04-25T01:46:09;5.27;;;4.77;;
18360;SDS011;9308;48.550;9.108;2023-04-25T01:48:36;6.77;;;5.40;;
18360;SDS011;9308;48.550;9.108;2023-04-25T01:51:02;5.73;;;5.20;;
18360;SDS011;9308;48.550;9.108;2023-04-25T01:53:28;5.30;;;4.80;;
18360;SDS011;9308;48.550;9.108;2023-04-25T01:55:53;5.17;;;4.77;;
18360;SDS011;9308;48.550;9.108;2023-04-25T01:58:19;5.60;;;5.10;;
18360;SDS011;9308;48.550;9.108;2023-04-25T02:00:44;5.57;;;5.17;;
18360;SDS011;9308;48.550;9.108;2023-04-25T02:03:09;4.27;;;3.93;;
18360;SDS011;9308;48.550;9.108;2023-04-25T02:05:38;7.50;;;5.30;;
18360;SDS011;9308;48.550;9.108;2023-04-25T02:08:06;4.80;;;4.40;;
18360;SDS011;9308;48.550;9.108;2023-04-25T02:10:32;4.80;;;4.40;;
18360;SDS011;9308;48.550;9.108;2023-04-25T02:12:58;5.73;;;5.17;;
18360;SDS011;9308;48.550;9.108;2023-04-25T02:15:24;5.20;;;4.77;;
18360;SDS011;9308;48.550;9.108;2023-04-25T02:17:50;5.30;;;4.80;;
18360;SDS011;9308;48.550;9.108;2023-04-25T02:20:18;8.10;;;4.93;;
18360;SDS011;9308;48.550;9.108;2023-04-25T02:22:45;4.87;;;4.50;;
18360;SDS011;9308;48.550;9.108;2023-04-25T02:25:12;5.50;;;4.83;;
18360;SDS011;9308;48.550;9.108;2023-04-25T02:27:38;5.40;;;5.00;;
18360;SDS011;9308;48.550;9.108;2023-04-25T02:30:04;7.60;;;5.53;;
18360;SDS011;9308;48.550;9.108;2023-04-25T02:32:31;5.93;;;5.43;;
18360;SDS011;9308;48.550;9.108;2023-04-25T02:34:59;5.80;;;5.30;;
18360;SDS011;9308;48.550;9.108;2023-04-25T02:37:29;7.63;;;5.20;;
18360;SDS011;9308;48.550;9.108;2023-04-25T02:39:55;5.43;;;5.03;;
18360;SDS011;9308;48.550;9.108;2023-04-25T02:42:21;5.60;;;5.00;;
18360;SDS011;9308;48.550;9.108;2023-04-25T02:44:46;5.80;;;5.23;;
18360;SDS011;9308;48.550;9.108;2023-04-25T02:47:11;5.43;;;5.03;;
18360;SDS011;9308;48.550;9.108;2023-04-25T02:49:37;5.87;;;5.23;;
18360;SDS011;9308;48.550;9.108;2023-04-25T02:54:32;6.20;;;5.27;;
18360;SDS011;9308;48.550;9.108;2023-04-25T02:56:58;6.03;;;5.30;;
18360;SDS011;9308;48.550;9.108;2023-04-25T02:59:23;5.50;;;5.00;;
18360;SDS011;9308;48.550;9.108;2023-04-25T03:01:48;6.87;;;6.27;;
18360;SDS011;9308;48.550;9.108;2023-04-25T03:04:15;6.43;;;5.83;;
18360;SDS011;9308;48.550;9.108;2023-04-25T03:06:40;7.63;;;5.87;;
18360;SDS011;9308;48.550;9.108;2023-04-25T03:09:05;5.00;;;4.60;;
18360;SDS011;9308;48.550;9.108;2023-04-25T03:11:31;5.40;;;5.00;;
18360;SDS011;9308;48.550;9.108;2023-04-25T03:13:56;5.73;;;5.13;;
18360;SDS011;9308;48.550;9.108;2023-04-25T03:16:22;5.77;;;5.27;;
18360;SDS011;9308;48.550;9.108;2023-04-25T03:18:47;6.67;;;6.13;;
18360;SDS011;9308;48.550;9.108;2023-04-25T03:21:14;7.07;;;5.40;;
18360;SDS011;9308;48.550;9.108;2023-04-25T03:23:40;6.30;;;5.73;;
18360;SDS011;9308;48.550;9.108;2023-04-25T03:26:05;5.57;;;5.07;;
18360;SDS011;9308;48.550;9.108;2023-04-25T03:28:31;6.03;;;5.53;;
18360;SDS011;9308;48.550;9.108;2023-04-25T03:30:56;5.80;;;5.40;;
18360;SDS011;9308;48.550;9.108;2023-04-25T03:33:22;7.70;;;5.50;;
18360;SDS011;9308;48.550;9.108;2023-04-25T03:35:47;6.20;;;5.70;;
18360;SDS011;9308;48.550;9.108;2023-04-25T03:38:13;5.63;;;5.10;;
18360;SDS011;9308;48.550;9.108;2023-04-25T03:40:38;5.40;;;5.00;;
18360;SDS011;9308;48.550;9.108;2023-04-25T03:43:03;6.13;;;5.60;;
18360;SDS011;9308;48.550;9.108;2023-04-25T03:45:29;6.00;;;5.60;;
18360;SDS011;9308;48.550;9.108;2023-04-25T03:47:54;5.50;;;5.10;;
18360;SDS011;9308;48.550;9.108;2023-04-25T03:50:20;5.93;;;5.33;;
18360;SDS011;9308;48.550;9.108;2023-04-25T03:52:45;6.40;;;5.20;;
18360;SDS011;9308;48.550;9.108;2023-04-25T03:55:11;5.73;;;5.00;;
18360;SDS011;9308;48.550;9.108;2023-04-25T03:57:36;5.13;;;4.73;;
18360;SDS011;9308;48.550;9.108;2023-04-25T04:00:02;7.03;;;5.50;;
18360;SDS011;9308;48.550;9.108;2023-04-25T04:02:29;5.43;;;4.87;;
18360;SDS011;9308;48.550;9.108;2023-04-25T04:04:54;5.63;;;5.03;;
18360;SDS011;9308;48.550;9.108;2023-04-25T04:07:21;4.70;;;4.30;;
18360;SDS011;9308;48.550;9.108;2023-04-25T04:09:47;5.10;;;4.60;;
18360;SDS011;9308;48.550;9.108;2023-04-25T04:12:12;4.97;;;4.57;;
18360;SDS011;9308;48.550;9.108;2023-04-25T04:14:37;5.20;;;4.80;;
18360;SDS011;9308;48.550;9.108;2023-04-25T04:17:03;6.10;;;5.57;;
18360;SDS011;9308;48.550;9.108;2023-04-25T04:19:28;5.97;;;5.57;;
18360;SDS011;9308;48.550;9.108;2023-04-25T04:21:54;6.03;;;5.53;;
18360;SDS011;9308;48.550;9.108;2023-04-25T04:24:19;6.73;;;6.10;;
18360;SDS011;9308;48.550;9.108;2023-04-25T04:26:44;5.97;;;5.47;;
18360;SDS011;9308;48.550;9.108;2023-04-25T04:29:10;4.90;;;4.50;;
18360;SDS011;9308;48.550;9.108;2023-04-25T04:31:36;5.23;;;4.83;;
18360;SDS011;9308;48.550;9.108;2023-04-25T04:34:02;4.87;;;4.50;;
18360;SDS011;9308;48.550;9.108;2023-04-25T04:36:28;5.40;;;5.00;;
18360;SDS011;9308;48.550;9.108;2023-04-25T04:38:54;6.20;;;5.13;;
18360;SDS011;9308;48.550;9.108;2023-04-25T04:41:21;5.13;;;4.73;;
18360;SDS011;9308;48.550;9.108;2023-04-25T04:43:47;6.33;;;5.27;;
18360;SDS011;9308;48.550;9.108;2023-04-25T04:46:13;6.00;;;5.40;;
18360;SDS011;9308;48.550;9.108;2023-04-25T04:48:38;5.63;;;4.60;;
18360;SDS011;9308;48.550;9.108;2023-04-25T04:51:05;5.37;;;4.83;;
18360;SDS011;9308;48.550;9.108;2023-04-25T04:53:31;6.00;;;5.10;;
18360;SDS011;9308;48.550;9.108;2023-04-25T04:55:57;5.27;;;4.87;;
18360;SDS011;9308;48.550;9.108;2023-04-25T04:58:23;4.60;;;4.30;;
18360;SDS011;9308;48.550;9.108;2023-04-25T05:00:48;8.53;;;4.57;;
18360;SDS011;9308;48.550;9.108;2023-04-25T05:03:14;4.73;;;4.33;;
18360;SDS011;9308;48.550;9.108;2023-04-25T05:05:40;4.90;;;4.50;;
18360;SDS011;9308;48.550;9.108;2023-04-25T05:08:06;4.30;;;3.90;;
18360;SDS011;9308;48.550;9.108;2023-04-25T05:10:32;5.30;;;4.30;;
18360;SDS011;9308;48.550;9.108;2023-04-25T05:12:57;4.43;;;4.13;;
18360;SDS011;9308;48.550;9.108;2023-04-25T05:15:23;5.97;;;4.67;;
18360;SDS011;9308;48.550;9.108;2023-04-25T05:17:48;5.80;;;5.10;;
18360;SDS011;9308;48.550;9.108;2023-04-25T05:20:14;5.47;;;5.00;;
18360;SDS011;9308;48.550;9.108;2023-04-25T05:22:39;5.53;;;5.13;;
18360;SDS011;9308;48.550;9.108;2023-04-25T05:25:07;7.67;;;6.17;;
18360;SDS011;9308;48.550;9.108;2023-04-25T05:27:34;5.63;;;5.10;;
18360;SDS011;9308;48.550;9.108;2023-04-25T05:30:00;6.80;;;4.73;;
18360;SDS011;9308;48.550;9.108;2023-04-25T05:32:25;6.50;;;5.17;;
18360;SDS011;9308;48.550;9.108;2023-04-25T05:34:51;6.67;;;5.73;;
18360;SDS011;9308;48.550;9.108;2023-04-25T05:37:17;5.57;;;5.07;;
18360;SDS011;9308;48.550;9.108;2023-04-25T05:39:42;5.53;;;4.97;;
18360;SDS011;9308;48.550;9.108;2023-04-25T05:42:08;6.33;;;5.73;;
18360;SDS011;9308;48.550;9.108;2023-04-25T05:44:33;5.70;;;5.10;;
18360;SDS011;9308;48.550;9.108;2023-04-25T05:46:59;7.80;;;4.87;;
18360;SDS011;9308;48.550;9.108;2023-04-25T05:49:24;6.20;;;5.03;;
18360;SDS011;9308;48.550;9.108;2023-04-25T05:51:50;5.63;;;5.17;;
18360;SDS011;9308;48.550;9.108;2023-04-25T05:54:15;6.00;;;5.50;;
18360;SDS011;9308;48.550;9.108;2023-04-25T05:56:41;7.07;;;5.20;;
18360;SDS011;9308;48.550;9.108;2023-04-25T05:59:06;5.43;;;5.03;;
18360;SDS011;9308;48.550;9.108;2023-04-25T06:01:31;5.50;;;5.07;;
18360;SDS011;9308;48.550;9.108;2023-04-25T06:03:57;5.30;;;4.80;;
18360;SDS011;9308;48.550;9.108;2023-04-25T06:06:22;5.77;;;5.10;;
18360;SDS011;9308;48.550;9.108;2023-04-25T06:08:48;6.00;;;4.47;;
18360;SDS011;9308;48.550;9.108;2023-04-25T06:11:13;4.77;;;4.40;;
18360;SDS011;9308;48.550;9.108;2023-04-25T06:13:39;6.03;;;5.43;;
18360;SDS011;9308;48.550;9.108;2023-04-25T06:16:04;5.53;;;5.03;;
18360;SDS011;9308;48.550;9.108;2023-04-25T06:18:30;5.87;;;5.30;;
18360;SDS011;9308;48.550;9.108;2023-04-25T06:20:55;4.90;;;4.50;;
18360;SDS011;9308;48.550;9.108;2023-04-25T06:23:21;6.13;;;5.60;;
18360;SDS011;9308;48.550;9.108;2023-04-25T06:25:46;5.47;;;4.97;;
18360;SDS011;9308;48.550;9.108;2023-04-25T06:28:11;6.27;;;5.17;;
18360;SDS011;9308;48.550;9.108;2023-04-25T06:30:37;4.73;;;4.33;;
18360;SDS011;9308;48.550;9.108;2023-04-25T06:33:02;4.33;;;4.00;;
18360;SDS011;9308;48.550;9.108;2023-04-25T06:35:28;4.10;;;3.80;;
18360;SDS011;9308;48.550;9.108;2023-04-25T06:37:53;5.47;;;4.17;;
18360;SDS011;9308;48.550;9.108;2023-04-25T06:40:19;5.93;;;4.70;;
18360;SDS011;9308;48.550;9.108;2023-04-25T06:42:44;5.50;;;5.00;;
18360;SDS011;9308;48.550;9.108;2023-04-25T06:45:10;5.47;;;5.03;;
18360;SDS011;9308;48.550;9.108;2023-04-25T06:47:35;5.73;;;5.10;;
18360;SDS011;9308;48.550;9.108;2023-04-25T06:50:01;5.63;;;5.10;;
18360;SDS011;9308;48.550;9.108;2023-04-25T06:52:26;5.83;;;5.37;;
18360;SDS011;9308;48.550;9.108;2023-04-25T06:54:52;5.67;;;5.10;;
18360;SDS011;9308;48.550;9.108;2023-04-25T06:57:17;4.60;;;4.20;;
18360;SDS011;9308;48.550;9.108;2023-04-25T06:59:43;5.03;;;4.57;;
18360;SDS011;9308;48.550;9.108;2023-04-25T07:02:08;4.00;;;3.53;;
18360;SDS011;9308;48.550;9.108;2023-04-25T07:04:33;4.30;;;4.00;;
18360;SDS011;9308;48.550;9.108;2023-04-25T07:06:59;4.50;;;4.10;;
18360;SDS011;9308;48.550;9.108;2023-04-25T07:09:27;4.70;;;4.30;;
18360;SDS011;9308;48.550;9.108;2023-04-25T07:11:53;4.33;;;3.30;;
18360;SDS011;9308;48.550;9.108;2023-04-25T07:14:18;4.60;;;4.00;;
18360;SDS011;9308;48.550;9.108;2023-04-25T07:16:44;4.50;;;4.20;;
18360;SDS011;9308;48.550;9.108;2023-04-25T07:19:09;4.30;;;3.90;;
18360;SDS011;9308;48.550;9.108;2023-04-25T07:21:35;4.87;;;4.40;;
18360;SDS011;9308;48.550;9.108;2023-04-25T07:24:01;6.30;;;4.73;;
18360;SDS011;9308;48.550;9.108;2023-04-25T07:26:27;4.73;;;4.33;;
18360;SDS011;9308;48.550;9.108;2023-04-25T07:28:52;5.13;;;4.73;;
18360;SDS011;9308;48.550;9.108;2023-04-25T07:31:19;4.67;;;4.27;;
18360;SDS011;9308;48.550;9.108;2023-04-25T07:33:45;4.07;;;3.77;;
18360;SDS011;9308;48.550;9.108;2023-04-25T07:36:11;4.63;;;4.23;;
18360;SDS011;9308;48.550;9.108;2023-04-25T07:38:37;5.23;;;4.63;;
18360;SDS011;9308;48.550;9.108;2023-04-25T07:41:03;10.07;;;9.07;;
18360;SDS011;9308;48.550;9.108;2023-04-25T07:43:29;8.43;;;7.83;;
18360;SDS011;9308;48.550;9.108;2023-04-25T07:45:56;12.50;;;11.50;;
18360;SDS011;9308;48.550;9.108;2023-04-25T07:48:21;11.43;;;9.70;;
18360;SDS011;9308;48.550;9.108;2023-04-25T07:50:47;10.10;;;9.00;;
18360;SDS011;9308;48.550;9.108;2023-04-25T07:53:12;8.93;;;8.20;;
18360;SDS011;9308;48.550;9.108;2023-04-25T07:55:38;9.53;;;8.73;;
18360;SDS011;9308;48.550;9.108;2023-04-25T07:58:05;8.67;;;7.87;;
18360;SDS011;9308;48.550;9.108;2023-04-25T08:00:32;5.77;;;5.23;;
18360;SDS011;9308;48.550;9.108;2023-04-25T08:02:57;5.50;;;5.10;;
18360;SDS011;9308;48.550;9.108;2023-04-25T08:05:22;6.30;;;5.80;;
18360;SDS011;9308;48.550;9.108;2023-04-25T08:07:48;7.10;;;6.40;;
18360;SDS011;9308;48.550;9.108;2023-04-25T08:10:13;7.30;;;6.60;;
18360;SDS011;9308;48.550;9.108;2023-04-25T08:12:39;6.07;;;5.57;;
18360;SDS011;9308;48.550;9.108;2023-04-25T08:15:05;5.07;;;4.57;;
18360;SDS011;9308;48.550;9.108;2023-04-25T08:17:31;5.03;;;4.63;;
18360;SDS011;9308;48.550;9.108;2023-04-25T08:19:57;6.60;;;6.00;;
18360;SDS011;9308;48.550;9.108;2023-04-25T08:22:22;5.57;;;5.17;;
18360;SDS011;9308;48.550;9.108;2023-04-25T08:24:48;6.23;;;5.70;;
18360;SDS011;9308;48.550;9.108;2023-04-25T08:27:13;8.00;;;7.30;;
18360;SDS011;9308;48.550;9.108;2023-04-25T08:29:39;7.60;;;6.90;;
18360;SDS011;9308;48.550;9.108;2023-04-25T08:32:04;6.90;;;6.40;;
18360;SDS011;9308;48.550;9.108;2023-04-25T08:34:29;7.30;;;6.70;;
18360;SDS011;9308;48.550;9.108;2023-04-25T08:36:55;5.53;;;5.13;;
18360;SDS011;9308;48.550;9.108;2023-04-25T08:39:20;5.33;;;4.93;;
18360;SDS011;9308;48.550;9.108;2023-04-25T08:41:46;5.83;;;5.33;;
18360;SDS011;9308;48.550;9.108;2023-04-25T08:44:12;6.33;;;5.40;;
18360;SDS011;9308;48.550;9.108;2023-04-25T08:46:38;6.03;;;5.53;;
18360;SDS011;9308;48.550;9.108;2023-04-25T08:49:05;8.50;;;7.60;;
18360;SDS011;9308;48.550;9.108;2023-04-25T08:51:32;6.77;;;6.13;;
18360;SDS011;9308;48.550;9.108;2023-04-25T08:54:19;5.33;;;4.93;;
18360;SDS011;9308;48.550;9.108;2023-04-25T08:56:47;8.93;;;7.27;;
18360;SDS011;9308;48.550;9.108;2023-04-25T08:59:13;7.10;;;6.50;;
18360;SDS011;9308;48.550;9.108;2023-04-25T09:01:39;7.10;;;6.40;;
18360;SDS011;9308;48.550;9.108;2023-04-25T09:04:04;8.20;;;7.50;;
18360;SDS011;9308;48.550;9.108;2023-04-25T09:06:31;6.63;;;6.03;;
18360;SDS011;9308;48.550;9.108;2023-04-25T09:09:06;6.20;;;5.60;;
18360;SDS011;9308;48.550;9.108;2023-04-25T09:11:33;4.77;;;4.37;;
18360;SDS011;9308;48.550;9.108;2023-04-25T09:14:12;5.10;;;4.70;;
18360;SDS011;9308;48.550;9.108;2023-04-25T09:19:25;4.77;;;4.27;;
18360;SDS011;9308;48.550;9.108;2023-04-25T09:21:51;4.50;;;4.10;;
18360;SDS011;9308;48.550;9.108;2023-04-25T09:24:29;4.40;;;4.10;;
18360;SDS011;9308;48.550;9.108;2023-04-25T09:26:59;4.30;;;4.00;;
18360;SDS011;9308;48.550;9.108;2023-04-25T09:29:33;4.37;;;4.07;;
18360;SDS011;9308;48.550;9.108;2023-04-25T09:32:13;4.30;;;3.90;;
18360;SDS011;9308;48.550;9.108;2023-04-25T09:34:42;4.40;;;4.10;;
18360;SDS011;9308;48.550;9.108;2023-04-25T09:37:09;4.00;;;3.70;;
18360;SDS011;9308;48.550;9.108;2023-04-25T09:39:38;3.40;;;3.20;;
18360;SDS011;9308;48.550;9.108;2023-04-25T09:42:04;4.50;;;4.10;;
18360;SDS011;9308;48.550;9.108;2023-04-25T09:44:30;4.33;;;3.93;;
18360;SDS011;9308;48.550;9.108;2023-04-25T09:46:56;5.03;;;4.63;;
18360;SDS011;9308;48.550;9.108;2023-04-25T09:49:22;4.73;;;4.30;;
18360;SDS011;9308;48.550;9.108;2023-04-25T09:51:57;4.87;;;4.57;;
18360;SDS011;9308;48.550;9.108;2023-04-25T09:54:26;5.83;;;5.20;;
18360;SDS011;9308;48.550;9.108;2023-04-25T09:56:52;4.00;;;3.70;;
18360;SDS011;9308;48.550;9.108;2023-04-25T09:59:21;4.63;;;4.23;;
18360;SDS011;9308;48.550;9.108;2023-04-25T10:01:48;4.33;;;4.03;;
18360;SDS011;9308;48.550;9.108;2023-04-25T10:04:16;4.00;;;3.70;;
18360;SDS011;9308;48.550;9.108;2023-04-25T10:06:45;3.40;;;3.10;;
18360;SDS011;9308;48.550;9.108;2023-04-25T10:09:15;3.43;;;3.03;;
18360;SDS011;9308;48.550;9.108;2023-04-25T10:11:42;3.53;;;3.03;;
18360;SDS011;9308;48.550;9.108;2023-04-25T10:14:09;2.63;;;2.43;;
18360;SDS011;9308;48.550;9.108;2023-04-25T10:16:36;2.27;;;2.17;;
18360;SDS011;9308;48.550;9.108;2023-04-25T10:19:03;2.07;;;1.87;;
18360;SDS011;9308;48.550;9.108;2023-04-25T10:21:29;1.80;;;1.70;;
18360;SDS011;9308;48.550;9.108;2023-04-25T10:23:57;1.73;;;1.63;;
18360;SDS011;9308;48.550;9.108;2023-04-25T10:26:23;1.40;;;1.30;;
18360;SDS011;9308;48.550;9.108;2023-04-25T10:28:56;1.40;;;1.30;;
18360;SDS011;9308;48.550;9.108;2023-04-25T10:31:26;1.40;;;1.40;;
18360;SDS011;9308;48.550;9.108;2023-04-25T10:33:51;1.50;;;1.50;;
18360;SDS011;9308;48.550;9.108;2023-04-25T10:36:19;1.40;;;1.40;;
18360;SDS011;9308;48.550;9.108;2023-04-25T10:38:48;1.20;;;1.20;;
18360;SDS011;9308;48.550;9.108;2023-04-25T10:41:17;1.20;;;1.20;;
18360;SDS011;9308;48.550;9.108;2023-04-25T10:43:46;1.30;;;1.30;;
18360;SDS011;9308;48.550;9.108;2023-04-25T10:46:19;1.40;;;1.30;;
18360;SDS011;9308;48.550;9.108;2023-04-25T10:48:54;1.97;;;1.87;;
18360;SDS011;9308;48.550;9.108;2023-04-25T10:51:25;2.80;;;2.60;;
18360;SDS011;9308;48.550;9.108;2023-04-25T10:56:21;2.83;;;2.63;;
18360;SDS011;9308;48.550;9.108;2023-04-25T10:58:48;2.20;;;2.10;;
18360;SDS011;9308;48.550;9.108;2023-04-25T11:01:14;2.20;;;2.10;;
18360;SDS011;9308;48.550;9.108;2023-04-25T11:03:44;1.40;;;1.30;;
18360;SDS011;9308;48.550;9.108;2023-04-25T11:08:57;1.43;;;1.30;;
18360;SDS011;9308;48.550;9.108;2023-04-25T11:11:26;1.20;;;1.20;;
18360;SDS011;9308;48.550;9.108;2023-04-25T11:13:52;0.90;;;0.90;;
18360;SDS011;9308;48.550;9.108;2023-04-25T11:16:17;1.00;;;1.00;;
18360;SDS011;9308;48.550;9.108;2023-04-25T11:18:43;2.20;;;1.30;;
18360;SDS011;9308;48.550;9.108;2023-04-25T11:21:09;1.67;;;1.03;;
18360;SDS011;9308;48.550;9.108;2023-04-25T11:23:35;1.10;;;1.10;;
18360;SDS011;9308;48.550;9.108;2023-04-25T11:26:02;1.33;;;1.27;;
18360;SDS011;9308;48.550;9.108;2023-04-25T11:28:28;1.10;;;1.10;;
18360;SDS011;9308;48.550;9.108;2023-04-25T11:30:53;1.40;;;1.30;;
18360;SDS011;9308;48.550;9.108;2023-04-25T11:33:22;1.40;;;1.20;;
18360;SDS011;9308;48.550;9.108;2023-04-25T11:35:49;1.20;;;1.20;;
18360;SDS011;9308;48.550;9.108;2023-04-25T11:38:15;1.50;;;1.40;;
18360;SDS011;9308;48.550;9.108;2023-04-25T11:40:40;1.30;;;1.30;;
18360;SDS011;9308;48.550;9.108;2023-04-25T11:43:06;1.93;;;1.20;;
18360;SDS011;9308;48.550;9.108;2023-04-25T11:45:32;2.10;;;2.00;;
18360;SDS011;9308;48.550;9.108;2023-04-25T11:47:57;2.30;;;2.20;;
18360;SDS011;9308;48.550;9.108;2023-04-25T11:50:23;1.37;;;1.27;;
18360;SDS011;9308;48.550;9.108;2023-04-25T11:52:48;1.47;;;1.37;;
18360;SDS011;9308;48.550;9.108;2023-04-25T11:55:14;1.43;;;1.37;;
18360;SDS011;9308;48.550;9.108;2023-04-25T11:57:41;1.80;;;1.70;;
18360;SDS011;9308;48.550;9.108;2023-04-25T12:00:17;1.70;;;1.60;;
18360;SDS011;9308;48.550;9.108;2023-04-25T12:02:54;2.03;;;1.93;;
18360;SDS011;9308;48.550;9.108;2023-04-25T12:05:23;3.80;;;1.97;;
18360;SDS011;9308;48.550;9.108;2023-04-25T12:07:51;3.07;;;2.30;;
18360;SDS011;9308;48.550;9.108;2023-04-25T12:10:17;2.17;;;2.07;;
18360;SDS011;9308;48.550;9.108;2023-04-25T12:12:43;2.43;;;2.23;;
18360;SDS011;9308;48.550;9.108;2023-04-25T12:15:17;1.80;;;1.70;;
18360;SDS011;9308;48.550;9.108;2023-04-25T12:17:48;2.10;;;2.00;;
18360;SDS011;9308;48.550;9.108;2023-04-25T12:20:16;2.03;;;1.90;;
18360;SDS011;9308;48.550;9.108;2023-04-25T12:22:47;2.53;;;2.43;;
18360;SDS011;9308;48.550;9.108;2023-04-25T12:25:33;2.10;;;2.00;;
18360;SDS011;9308;48.550;9.108;2023-04-25T12:31:04;2.53;;;2.33;;
18360;SDS011;9308;48.550;9.108;2023-04-25T12:33:32;2.00;;;1.90;;
18360;SDS011;9308;48.550;9.108;2023-04-25T12:35:58;2.77;;;2.67;;
18360;SDS011;9308;48.550;9.108;2023-04-25T12:38:29;3.80;;;3.60;;
18360;SDS011;9308;48.550;9.108;2023-04-25T12:40:56;2.60;;;2.50;;
18360;SDS011;9308;48.550;9.108;2023-04-25T12:43:22;1.70;;;1.60;;
18360;SDS011;9308;48.550;9.108;2023-04-25T12:45:51;2.90;;;2.70;;
18360;SDS011;9308;48.550;9.108;2023-04-25T12:48:17;1.40;;;1.40;;
18360;SDS011;9308;48.550;9.108;2023-04-25T12:50:43;1.80;;;1.70;;
18360;SDS011;9308;48.550;9.108;2023-04-25T12:53:10;1.80;;;1.70;;
18360;SDS011;9308;48.550;9.108;2023-04-25T12:55:36;4.23;;;3.93;;
18360;SDS011;9308;48.550;9.108;2023-04-25T12:58:02;1.90;;;1.80;;
18360;SDS011;9308;48.550;9.108;2023-04-25T13:00:28;2.00;;;1.90;;
18360;SDS011;9308;48.550;9.108;2023-04-25T13:02:55;1.87;;;1.77;;
18360;SDS011;9308;48.550;9.108;2023-04-25T13:05:20;2.00;;;1.80;;
18360;SDS011;9308;48.550;9.108;2023-04-25T13:07:45;1.93;;;1.83;;
18360;SDS011;9308;48.550;9.108;2023-04-25T13:10:11;2.77;;;2.07;;
18360;SDS011;9308;48.550;9.108;2023-04-25T13:12:36;1.90;;;1.77;;
18360;SDS011;9308;48.550;9.108;2023-04-25T13:15:02;2.50;;;2.07;;
18360;SDS011;9308;48.550;9.108;2023-04-25T13:17:27;2.10;;;2.00;;
18360;SDS011;9308;48.550;9.108;2023-04-25T13:19:53;2.43;;;2.30;;
18360;SDS011;9308;48.550;9.108;2023-04-25T13:22:18;2.20;;;2.10;;
18360;SDS011;9308;48.550;9.108;2023-04-25T13:24:45;2.70;;;2.50;;
18360;SDS011;9308;48.550;9.108;2023-04-25T13:27:11;3.03;;;2.83;;
18360;SDS011;9308;48.550;9.108;2023-04-25T13:29:38;3.07;;;2.83;;
18360;SDS011;9308;48.550;9.108;2023-04-25T13:32:05;3.17;;;2.87;;
18360;SDS011;9308;48.550;9.108;2023-04-25T13:34:31;3.10;;;2.90;;
18360;SDS011;9308;48.550;9.108;2023-04-25T13:36:57;3.17;;;2.97;;
18360;SDS011;9308;48.550;9.108;2023-04-25T13:39:22;3.97;;;3.67;;
18360;SDS011;9308;48.550;9.108;2023-04-25T13:41:48;4.00;;;3.33;;
18360;SDS011;9308;48.550;9.108;2023-04-25T13:44:13;3.27;;;3.00;;
18360;SDS011;9308;48.550;9.108;2023-04-25T13:46:38;3.07;;;2.87;;
18360;SDS011;9308;48.550;9.108;2023-04-25T13:49:04;3.00;;;2.63;;
18360;SDS011;9308;48.550;9.108;2023-04-25T13:51:30;2.27;;;2.17;;
18360;SDS011;9308;48.550;9.108;2023-04-25T13:53:55;2.30;;;2.10;;
18360;SDS011;9308;48.550;9.108;2023-04-25T13:56:21;2.80;;;2.60;;
18360;SDS011;9308;48.550;9.108;2023-04-25T13:58:48;3.87;;;3.57;;
18360;SDS011;9308;48.550;9.108;2023-04-25T14:01:15;3.23;;;3.00;;
18360;SDS011;9308;48.550;9.108;2023-04-25T14:03:40;3.73;;;3.43;;
18360;SDS011;9308;48.550;9.108;2023-04-25T14:06:06;3.17;;;2.97;;
18360;SDS011;9308;48.550;9.108;2023-04-25T14:08:32;4.23;;;3.93;;
18360;SDS011;9308;48.550;9.108;2023-04-25T14:10:57;5.67;;;5.27;;
18360;SDS011;9308;48.550;9.108;2023-04-25T14:13:22;4.77;;;4.17;;
18360;SDS011;9308;48.550;9.108;2023-04-25T14:15:48;4.47;;;4.13;;
18360;SDS011;9308;48.550;9.108;2023-04-25T14:18:15;4.17;;;3.87;;
18360;SDS011;9308;48.550;9.108;2023-04-25T14:20:41;4.47;;;4.17;;
18360;SDS011;9308;48.550;9.108;2023-04-25T14:23:06;4.90;;;4.50;;
18360;SDS011;9308;48.550;9.108;2023-04-25T14:25:31;4.97;;;4.60;;
18360;SDS011;9308;48.550;9.108;2023-04-25T14:27:57;5.00;;;4.60;;
18360;SDS011;9308;48.550;9.108;2023-04-25T14:30:22;4.80;;;4.40;;
18360;SDS011;9308;48.550;9.108;2023-04-25T14:32:51;5.20;;;4.50;;
18360;SDS011;9308;48.550;9.108;2023-04-25T14:35:16;6.03;;;5.37;;
18360;SDS011;9308;48.550;9.108;2023-04-25T14:37:42;6.07;;;5.57;;
18360;SDS011;9308;48.550;9.108;2023-04-25T14:40:08;5.80;;;5.30;;
18360;SDS011;9308;48.550;9.108;2023-04-25T14:42:38;6.00;;;5.50;;
18360;SDS011;9308;48.550;9.108;2023-04-25T14:45:05;5.70;;;5.23;;
18360;SDS011;9308;48.550;9.108;2023-04-25T14:47:32;5.60;;;5.10;;
18360;SDS011;9308;48.550;9.108;2023-04-25T14:49:58;7.03;;;6.23;;
18360;SDS011;9308;48.550;9.108;2023-04-25T14:52:24;6.93;;;6.33;;
18360;SDS011;9308;48.550;9.108;2023-04-25T14:54:50;6.33;;;5.83;;
18360;SDS011;9308;48.550;9.108;2023-04-25T14:57:16;6.10;;;5.60;;
18360;SDS011;9308;48.550;9.108;2023-04-25T14:59:41;6.93;;;6.33;;
18360;SDS011;9308;48.550;9.108;2023-04-25T15:02:07;6.47;;;5.97;;
18360;SDS011;9308;48.550;9.108;2023-04-25T15:04:32;6.23;;;5.73;;
18360;SDS011;9308;48.550;9.108;2023-04-25T15:06:58;6.97;;;6.37;;
18360;SDS011;9308;48.550;9.108;2023-04-25T15:09:24;5.87;;;5.37;;